Time;durP1;ratioP1;P1;durP2;ratioP2;P2;SDS_P1;SDS_P2;PMS_P1;PMS_P2;Temp;Humidity;BMP_temperature;BMP_pressure;BME280_temperature;BME280_humidity;BME280_pressure;Samples;Min_cycle;Max_cycle;Signal;HPM_P1;HPM_P2
2021/07/10 00:00:06;;;;;;;4.50;2.80;;;;;;;16.52;92.01;101393.41;5078995;28;20024;-51
2021/07/10 00:02:32;;;;;;;3.85;2.70;;;;;;;16.54;91.56;101390.41;5078348;28;20031;-49
2021/07/10 00:04:57;;;;;;;7.53;3.33;;;;;;;16.45;92.32;101390.16;5088985;28;20085;-48
2021/07/10 00:07:22;;;;;;;4.13;3.03;;;;;;;16.56;91.51;101389.06;5083410;28;20060;-50
2021/07/10 00:09:48;;;;;;;4.53;2.95;;;;;;;16.51;91.88;101382.81;5084004;28;20067;-47
2021/07/10 00:12:13;;;;;;;6.60;2.70;;;;;;;16.49;92.24;101376.88;5084003;28;20035;-48
2021/07/10 00:14:39;;;;;;;5.57;3.00;;;;;;;16.29;93.56;101380.41;5080397;28;20032;-49
2021/07/10 00:17:05;;;;;;;6.30;3.17;;;;;;;16.29;93.61;101383.91;5082271;28;20027;-51
2021/07/10 00:19:30;;;;;;;3.47;2.75;;;;;;;16.26;94.01;101389.06;5087079;28;20546;-48
2021/07/10 00:21:56;;;;;;;5.57;2.63;;;;;;;16.33;93.77;101379.59;5086972;28;20115;-48
2021/07/10 00:24:21;;;;;;;5.13;2.63;;;;;;;16.22;94.80;101377.19;5078724;28;20736;-51
2021/07/10 00:26:47;;;;;;;2.47;2.25;;;;;;;16.30;94.07;101380.13;5082191;28;20023;-48
2021/07/10 00:29:13;;;;;;;2.30;2.10;;;;;;;16.36;93.44;101383.66;5083974;28;20382;-50
2021/07/10 00:31:38;;;;;;;3.78;2.17;;;;;;;16.25;94.35;101382.03;5081259;28;20023;-49
2021/07/10 00:34:04;;;;;;;3.17;1.98;;;;;;;16.08;95.37;101386.91;5081881;28;20032;-52
2021/07/10 00:36:29;;;;;;;3.25;1.85;;;;;;;16.09;95.40;101383.09;5082277;28;20036;-47
2021/07/10 00:38:56;;;;;;;2.00;1.73;;;;;;;16.16;95.01;101378.25;5086132;28;20043;-47
2021/07/10 00:41:22;;;;;;;5.72;1.90;;;;;;;16.17;95.02;101386.09;5083697;28;20963;-46
2021/07/10 00:43:51;;;;;;;2.65;1.67;;;;;;;16.19;94.65;101381.22;5087656;28;20523;-47
2021/07/10 00:46:19;;;;;;;2.67;1.70;;;;;;;16.17;95.31;101385.28;5082690;28;20059;-47
2021/07/10 00:48:45;;;;;;;3.03;1.40;;;;;;;16.18;95.50;101386.91;5080780;28;20020;-48
2021/07/10 00:51:11;;;;;;;2.00;1.48;;;;;;;16.02;96.10;101376.09;5087233;28;20023;-48
2021/07/10 00:53:36;;;;;;;2.85;1.90;;;;;;;16.15;95.55;101376.63;5082157;28;20097;-47
2021/07/10 00:56:03;;;;;;;2.45;1.20;;;;;;;16.24;95.26;101370.41;5085067;28;20454;-46
2021/07/10 00:58:28;;;;;;;2.58;1.13;;;;;;;16.28;95.00;101362.56;5082781;28;20024;-48
2021/07/10 01:00:54;;;;;;;2.03;1.40;;;;;;;16.12;95.91;101360.94;5083614;28;20043;-46
2021/07/10 01:03:21;;;;;;;3.20;1.20;;;;;;;16.26;95.08;101367.44;5083778;28;20032;-47
2021/07/10 01:05:46;;;;;;;2.50;1.10;;;;;;;16.35;94.49;101371.22;5086589;28;20046;-47
2021/07/10 01:08:12;;;;;;;2.72;0.90;;;;;;;16.44;93.73;101355.25;5086036;28;20020;-47
2021/07/10 01:10:37;;;;;;;1.60;1.05;;;;;;;16.17;95.27;101360.97;5084301;28;20027;-47
2021/07/10 01:13:03;;;;;;;3.03;0.98;;;;;;;16.20;95.26;101355.00;5084746;28;20028;-47
2021/07/10 01:15:29;;;;;;;0.95;0.70;;;;;;;16.02;96.07;101353.66;5085647;28;20111;-47
2021/07/10 01:17:57;;;;;;;0.65;0.65;;;;;;;15.94;96.53;101349.56;5084883;28;20034;-47
2021/07/10 01:20:23;;;;;;;3.90;0.90;;;;;;;15.74;98.19;101354.97;5080926;28;20032;-47
2021/07/10 01:22:51;;;;;;;1.00;0.80;;;;;;;15.48;100.00;101351.38;5077907;28;20032;-47
2021/07/10 01:25:19;;;;;;;0.95;0.85;;;;;;;15.50;100.00;101353.81;5080191;28;20028;-48
2021/07/10 01:27:44;;;;;;;1.88;1.00;;;;;;;15.61;100.00;101350.06;5078577;28;20024;-47
2021/07/10 01:30:13;;;;;;;1.77;0.88;;;;;;;15.68;99.57;101354.16;5084121;28;20016;-46
2021/07/10 01:32:40;;;;;;;1.73;0.75;;;;;;;15.68;99.79;101354.16;5080173;28;20032;-47
2021/07/10 01:35:08;;;;;;;2.00;1.08;;;;;;;15.53;99.64;101347.88;5079932;28;20027;-47
2021/07/10 01:37:34;;;;;;;1.10;0.80;;;;;;;15.50;100.00;101346.50;5085015;28;20028;-47
2021/07/10 01:40:00;;;;;;;1.23;1.05;;;;;;;15.46;100.00;101356.22;5083818;28;20032;-48
2021/07/10 01:42:25;;;;;;;1.15;1.05;;;;;;;15.59;100.00;101349.53;5080775;28;20028;-47
2021/07/10 01:44:51;;;;;;;1.95;1.10;;;;;;;15.69;99.23;101360.34;5082117;28;20115;-49
2021/07/10 01:47:18;;;;;;;3.35;1.20;;;;;;;15.53;98.97;101362.19;5079782;28;20043;-47
2021/07/10 01:49:44;;;;;;;3.05;1.40;;;;;;;15.61;98.08;101364.38;5086226;28;20100;-47
2021/07/10 01:52:09;;;;;;;3.17;1.20;;;;;;;15.50;99.18;101365.41;5080439;28;20494;-47
2021/07/10 01:54:35;;;;;;;1.30;1.00;;;;;;;15.55;98.94;101365.41;5083119;28;20027;-47
2021/07/10 01:57:00;;;;;;;1.52;1.20;;;;;;;15.46;99.16;101366.22;5086537;28;20393;-48
2021/07/10 01:59:26;;;;;;;3.92;1.23;;;;;;;15.36;98.87;101359.69;5089165;28;20020;-47
2021/07/10 02:01:52;;;;;;;2.65;1.52;;;;;;;15.29;98.89;101371.81;5088932;28;20080;-47
2021/07/10 02:04:20;;;;;;;2.42;1.20;;;;;;;15.29;99.80;101383.44;5089094;28;20036;-47
2021/07/10 02:06:46;;;;;;;1.27;1.17;;;;;;;15.30;99.25;101382.34;5088612;28;20410;-47
2021/07/10 02:09:12;;;;;;;2.63;1.00;;;;;;;15.41;98.94;101394.81;5087023;28;20036;-46
2021/07/10 02:11:43;;;;;;;5.00;1.23;;;;;;;15.38;99.30;101398.03;5088316;28;20028;-47
2021/07/10 02:14:08;;;;;;;3.55;1.23;;;;;;;15.22;100.00;101393.66;5085187;28;21004;-47
2021/07/10 02:16:34;;;;;;;1.45;1.30;;;;;;;15.21;100.00;101389.31;5086329;28;20106;-47
2021/07/10 02:19:00;;;;;;;3.63;1.30;;;;;;;15.03;100.00;101404.06;5088167;28;20471;-46
2021/07/10 02:21:26;;;;;;;3.20;1.42;;;;;;;15.04;100.00;101394.09;5088868;28;20031;-47
2021/07/10 02:23:52;;;;;;;2.38;1.65;;;;;;;15.02;100.00;101401.63;5084504;28;20043;-47
2021/07/10 02:26:18;;;;;;;4.35;1.90;;;;;;;15.02;100.00;101394.34;5089318;28;20135;-46
2021/07/10 02:28:43;;;;;;;4.93;1.65;;;;;;;14.94;100.00;101400.25;5084331;28;20028;-46
2021/07/10 02:31:09;;;;;;;3.40;1.92;;;;;;;14.98;100.00;101395.16;5086246;28;20081;-46
2021/07/10 02:33:35;;;;;;;2.00;1.88;;;;;;;14.96;100.00;101397.31;5084028;28;20111;-47
2021/07/10 02:36:00;;;;;;;4.72;2.13;;;;;;;14.99;100.00;101394.06;5085194;28;20037;-47
2021/07/10 02:38:25;;;;;;;3.25;1.83;;;;;;;14.99;100.00;101392.19;5088696;28;20428;-47
2021/07/10 02:40:51;;;;;;;3.28;2.13;;;;;;;15.08;100.00;101387.09;5083236;28;20134;-47
2021/07/10 02:43:17;;;;;;;3.05;1.92;;;;;;;15.12;100.00;101385.50;5087500;28;20024;-47
2021/07/10 02:45:42;;;;;;;3.35;2.25;;;;;;;14.98;100.00;101381.66;5086872;28;20492;-47
2021/07/10 02:48:10;;;;;;;5.03;2.50;;;;;;;14.98;100.00;101385.16;5085996;28;20031;-47
2021/07/10 02:50:35;;;;;;;2.58;2.17;;;;;;;14.97;100.00;101385.44;5088342;28;20207;-47
2021/07/10 02:53:01;;;;;;;4.70;2.40;;;;;;;15.01;100.00;101384.63;5084079;28;20074;-46
2021/07/10 02:55:29;;;;;;;4.10;2.42;;;;;;;15.05;100.00;101384.91;5089959;28;20032;-46
2021/07/10 02:57:54;;;;;;;2.60;2.33;;;;;;;15.10;100.00;101384.97;5087964;28;20031;-46
2021/07/10 03:00:23;;;;;;;3.85;2.65;;;;;;;15.11;100.00;101384.72;5088779;28;20431;-46
2021/07/10 03:02:48;;;;;;;4.20;2.70;;;;;;;15.14;99.76;101393.34;5087402;28;20031;-46
2021/07/10 03:05:14;;;;;;;3.38;3.08;;;;;;;15.06;99.88;101400.84;5083557;28;20073;-48
2021/07/10 03:07:41;;;;;;;4.13;2.60;;;;;;;15.19;99.41;101388.78;5088773;28;20093;-47
2021/07/10 03:10:15;;;;;;;3.90;2.53;;;;;;;15.24;98.47;101398.78;5085379;28;20442;-47
2021/07/10 03:12:40;;;;;;;2.80;2.50;;;;;;;15.26;98.16;101402.88;5087215;28;20042;-47
2021/07/10 03:15:08;;;;;;;2.78;2.50;;;;;;;15.11;98.60;101405.50;5084724;28;20294;-47
2021/07/10 03:17:33;;;;;;;2.92;2.30;;;;;;;15.17;98.64;101409.00;5085101;28;20534;-46
2021/07/10 03:19:59;;;;;;;3.22;2.20;;;;;;;15.21;98.18;101405.53;5085603;28;20032;-46
2021/07/10 03:22:24;;;;;;;4.82;2.90;;;;;;;15.06;98.26;101421.63;5086646;28;20506;-48
2021/07/10 03:24:50;;;;;;;3.13;2.35;;;;;;;15.10;98.66;101414.66;5085683;28;20027;-47
2021/07/10 03:27:16;;;;;;;3.70;2.80;;;;;;;15.16;98.04;101420.88;5088358;28;20027;-48
2021/07/10 03:29:41;;;;;;;3.45;2.90;;;;;;;15.25;97.99;101425.50;5085640;28;20043;-46
2021/07/10 03:32:07;;;;;;;3.80;2.70;;;;;;;15.25;97.28;101420.09;5082848;28;20021;-47
2021/07/10 03:34:33;;;;;;;5.35;3.03;;;;;;;15.27;96.90;101430.66;5079932;28;20386;-48
2021/07/10 03:36:58;;;;;;;4.13;3.22;;;;;;;15.38;96.24;101427.75;5081516;28;20024;-45
2021/07/10 03:39:25;;;;;;;3.20;2.75;;;;;;;15.45;95.81;101435.63;5081219;28;20370;-47
2021/07/10 03:41:50;;;;;;;5.47;3.30;;;;;;;15.42;96.46;101434.22;5082556;28;20054;-49
2021/07/10 03:44:16;;;;;;;3.10;2.80;;;;;;;15.53;96.09;101434.28;5079847;28;20111;-47
2021/07/10 03:46:41;;;;;;;4.80;2.78;;;;;;;15.55;95.62;101442.94;5078866;28;20415;-48
2021/07/10 03:49:07;;;;;;;6.32;3.08;;;;;;;15.49;94.62;101444.00;5084163;28;20461;-47
2021/07/10 03:51:32;;;;;;;5.35;3.22;;;;;;;15.56;94.80;101450.78;5082271;28;20470;-47
2021/07/10 03:53:58;;;;;;;4.60;2.95;;;;;;;15.63;94.46;101456.78;5081645;28;20621;-47
2021/07/10 03:56:24;;;;;;;6.22;3.25;;;;;;;15.55;94.43;101459.94;5084927;28;20020;-47
2021/07/10 03:58:49;;;;;;;3.60;3.15;;;;;;;15.70;93.66;101453.81;5082801;28;20095;-47
2021/07/10 04:01:15;;;;;;;5.35;2.60;;;;;;;15.73;93.67;101464.09;5082014;28;20020;-48
2021/07/10 04:03:40;;;;;;;2.97;2.60;;;;;;;15.77;93.17;101462.50;5079574;28;20036;-46
2021/07/10 04:06:06;;;;;;;2.97;2.65;;;;;;;15.77;92.89;101473.28;5085810;28;20028;-48
2021/07/10 04:08:31;;;;;;;4.47;2.83;;;;;;;15.73;93.60;101483.00;5080079;28;20036;-47
2021/07/10 04:10:57;;;;;;;3.92;3.05;;;;;;;15.88;92.46;101480.38;5083002;28;20043;-48
2021/07/10 04:13:22;;;;;;;4.15;2.88;;;;;;;15.91;92.70;101485.25;5079860;28;20030;-47
2021/07/10 04:15:48;;;;;;;4.20;3.50;;;;;;;15.91;92.85;101484.44;5085125;28;20035;-48
2021/07/10 04:18:13;;;;;;;3.30;3.00;;;;;;;15.99;92.27;101487.44;5084008;28;20066;-48
2021/07/10 04:20:39;;;;;;;4.07;3.25;;;;;;;16.10;91.95;101484.75;5080567;28;20505;-47
2021/07/10 04:23:05;;;;;;;4.38;3.15;;;;;;;16.05;92.39;101498.25;5082235;28;20038;-48
2021/07/10 04:25:32;;;;;;;6.05;3.60;;;;;;;16.07;91.93;101501.50;5081823;28;20107;-47
2021/07/10 04:27:58;;;;;;;6.07;3.72;;;;;;;15.94;92.61;101498.22;5080981;28;20036;-47
2021/07/10 04:30:24;;;;;;;4.15;3.10;;;;;;;16.14;91.79;101496.66;5081261;28;20024;-47
2021/07/10 04:32:50;;;;;;;4.93;3.40;;;;;;;16.28;90.90;101503.19;5078137;28;20101;-47
2021/07/10 04:35:17;;;;;;;4.68;3.38;;;;;;;16.34;90.41;101504.81;5078119;28;20535;-47
2021/07/10 04:37:43;;;;;;;4.38;3.45;;;;;;;16.37;90.35;101507.00;5080766;28;21019;-47
2021/07/10 04:40:11;;;;;;;4.22;3.25;;;;;;;16.35;90.23;101513.75;5081206;28;20055;-47
2021/07/10 04:42:37;;;;;;;7.32;3.97;;;;;;;16.35;90.65;101511.84;5079453;28;20165;-47
2021/07/10 04:45:05;;;;;;;5.78;3.97;;;;;;;16.31;91.10;101527.78;5081703;28;20386;-46
2021/07/10 04:47:30;;;;;;;7.88;4.95;;;;;;;16.25;91.45;101526.16;5077782;28;20517;-47
2021/07/10 04:49:56;;;;;;;6.63;5.05;;;;;;;16.28;91.27;101527.50;5084621;28;20035;-46
2021/07/10 04:52:21;;;;;;;7.20;4.35;;;;;;;16.30;90.86;101536.16;5083901;28;20742;-47
2021/07/10 04:54:47;;;;;;;6.28;5.03;;;;;;;16.19;91.78;101529.94;5078147;28;20032;-47
2021/07/10 04:57:12;;;;;;;5.88;4.88;;;;;;;16.10;91.71;101530.72;5083010;28;20031;-47
2021/07/10 04:59:38;;;;;;;5.35;4.40;;;;;;;16.02;92.41;101538.25;5080884;28;20056;-47
2021/07/10 05:02:03;;;;;;;8.90;5.03;;;;;;;16.19;91.44;101550.75;5082379;28;20030;-47
2021/07/10 05:04:29;;;;;;;7.93;4.70;;;;;;;16.06;91.70;101543.13;5080916;28;20150;-47
2021/07/10 05:06:54;;;;;;;5.90;5.00;;;;;;;16.20;90.76;101552.38;5079282;28;20093;-47
2021/07/10 05:09:20;;;;;;;5.82;4.60;;;;;;;16.06;90.95;101552.06;5083636;28;20133;-47
2021/07/10 05:11:47;;;;;;;7.18;4.55;;;;;;;16.13;90.68;101551.78;5078973;28;20039;-47
2021/07/10 05:14:13;;;;;;;7.25;4.90;;;;;;;16.15;90.08;101549.63;5080078;28;20085;-46
2021/07/10 05:16:39;;;;;;;5.13;4.55;;;;;;;16.28;89.53;101544.53;5085163;28;20474;-47
2021/07/10 05:19:05;;;;;;;4.97;4.47;;;;;;;16.32;89.83;101555.63;5080323;28;20031;-47
2021/07/10 05:21:31;;;;;;;5.47;4.10;;;;;;;16.38;89.00;101559.19;5079301;28;20478;-46
2021/07/10 05:23:57;;;;;;;4.95;4.45;;;;;;;16.28;89.54;101554.56;5080361;28;20047;-47
2021/07/10 05:26:23;;;;;;;4.90;4.35;;;;;;;16.30;89.52;101555.91;5079024;28;20568;-48
2021/07/10 05:28:48;;;;;;;8.98;4.88;;;;;;;16.45;88.87;101552.44;5081022;28;20024;-46
2021/07/10 05:31:14;;;;;;;6.32;4.38;;;;;;;16.37;89.20;101555.66;5078370;28;20020;-46
2021/07/10 05:33:40;;;;;;;6.53;5.30;;;;;;;16.17;90.25;101555.63;5077140;28;20031;-46
2021/07/10 05:36:06;;;;;;;7.03;4.65;;;;;;;16.28;89.45;101560.78;5085142;28;20521;-47
2021/07/10 05:38:31;;;;;;;5.43;4.75;;;;;;;16.34;89.66;101558.91;5081999;28;20028;-46
2021/07/10 05:40:57;;;;;;;6.95;5.35;;;;;;;16.26;90.01;101556.72;5079987;28;20056;-47
2021/07/10 05:43:23;;;;;;;6.88;5.82;;;;;;;16.21;90.29;101562.94;5082529;28;20035;-47
2021/07/10 05:45:51;;;;;;;8.85;6.50;;;;;;;16.29;90.19;101565.09;5083259;28;20073;-47
2021/07/10 05:48:17;;;;;;;7.35;5.60;;;;;;;16.13;91.16;101573.44;5084370;28;20024;-46
2021/07/10 05:50:43;;;;;;;7.75;6.25;;;;;;;16.19;91.07;101572.38;5078403;28;20355;-46
2021/07/10 05:53:09;;;;;;;7.45;6.38;;;;;;;16.14;91.40;101572.34;5083163;28;20038;-47
2021/07/10 05:55:35;;;;;;;10.38;7.03;;;;;;;16.23;91.21;101573.47;5081921;28;20028;-46
2021/07/10 05:58:01;;;;;;;9.40;7.22;;;;;;;16.14;91.18;101575.84;5085579;28;20031;-47
2021/07/10 06:00:26;;;;;;;9.93;6.28;;;;;;;16.20;91.72;101579.41;5082966;28;20036;-47
2021/07/10 06:02:52;;;;;;;7.68;6.90;;;;;;;16.28;91.28;101577.00;5088222;28;20020;-47
2021/07/10 06:05:17;;;;;;;11.00;7.00;;;;;;;16.20;91.83;101584.81;5082546;28;20027;-46
2021/07/10 06:07:43;;;;;;;9.75;7.65;;;;;;;16.00;93.61;101586.38;5085902;28;20021;-47
2021/07/10 06:10:11;;;;;;;8.38;7.43;;;;;;;16.13;93.06;101584.25;5085332;28;20390;-47
2021/07/10 06:12:36;;;;;;;10.05;7.40;;;;;;;15.93;93.37;101595.78;5080662;28;20052;-47
2021/07/10 06:15:04;;;;;;;11.30;7.70;;;;;;;16.15;92.90;101593.72;5082423;28;20524;-47
2021/07/10 06:17:29;;;;;;;10.18;7.40;;;;;;;16.14;93.11;101589.38;5082790;28;20032;-46
2021/07/10 06:19:55;;;;;;;9.90;8.00;;;;;;;16.13;92.98;101595.06;5083152;28;20024;-47
2021/07/10 06:22:20;;;;;;;10.60;6.75;;;;;;;16.29;91.58;101589.44;5083449;28;20020;-47
2021/07/10 06:24:46;;;;;;;9.40;7.18;;;;;;;16.24;92.06;101602.13;5083314;28;20245;-47
2021/07/10 06:27:12;;;;;;;9.48;7.80;;;;;;;16.19;92.57;101596.72;5085690;28;20032;-48
2021/07/10 06:29:38;;;;;;;12.85;7.55;;;;;;;16.19;92.61;101602.94;5080381;28;20548;-47
2021/07/10 06:32:07;;;;;;;9.40;7.28;;;;;;;16.39;91.41;101598.66;5081823;28;20064;-47
2021/07/10 06:34:33;;;;;;;10.55;8.00;;;;;;;16.51;91.43;101601.94;5103338;22;20050;-73
2021/07/10 06:36:58;;;;;;;8.40;7.47;;;;;;;16.58;90.96;101605.22;5057062;28;20159;-72
2021/07/10 06:39:23;;;;;;;11.20;8.20;;;;;;;16.65;90.97;101602.25;5055867;28;20100;-72
2021/07/10 06:41:49;;;;;;;9.38;7.85;;;;;;;16.72;91.00;101595.53;5033341;28;20430;-72
2021/07/10 06:44:14;;;;;;;9.00;7.30;;;;;;;16.87;90.46;101595.53;5032344;28;20434;-73
2021/07/10 06:49:08;;;;;;;10.07;7.60;;;;;;;17.32;89.39;101591.22;5097104;22;21943;-46
2021/07/10 06:51:34;;;;;;;13.23;7.68;;;;;;;17.64;87.47;101592.78;5072265;28;21124;-46
2021/07/10 06:54:00;;;;;;;8.65;6.63;;;;;;;17.64;87.54;101590.91;5074637;28;20044;-46
2021/07/10 06:56:25;;;;;;;10.95;7.10;;;;;;;17.91;86.56;101592.47;5061204;28;20030;-47
2021/07/10 06:58:51;;;;;;;11.98;7.50;;;;;;;18.00;85.44;101590.81;5038998;28;20025;-46
2021/07/10 07:01:16;;;;;;;10.02;7.38;;;;;;;17.76;86.02;101586.00;5052906;28;20385;-46
2021/07/10 07:03:42;;;;;;;9.35;7.55;;;;;;;17.75;86.47;101584.38;5051352;28;20033;-48
2021/07/10 07:06:07;;;;;;;10.48;7.78;;;;;;;17.38;87.36;101597.44;5052352;28;20028;-46
2021/07/10 07:08:33;;;;;;;8.75;7.22;;;;;;;17.19;88.27;101592.56;5056149;28;20024;-46
2021/07/10 07:10:58;;;;;;;8.55;7.18;;;;;;;17.17;88.14;101594.75;5050485;28;20433;-47
2021/07/10 07:13:24;;;;;;;11.38;6.75;;;;;;;17.38;87.08;101594.72;5052562;28;20035;-47
2021/07/10 07:15:49;;;;;;;9.88;7.93;;;;;;;17.40;87.24;101597.97;5054893;28;20635;-48
2021/07/10 07:18:15;;;;;;;12.20;8.23;;;;;;;17.39;87.62;101602.56;5054223;28;20063;-47
2021/07/10 07:20:44;;;;;;;9.23;7.85;;;;;;;17.48;86.84;101603.66;5053237;28;20030;-47
2021/07/10 07:23:10;;;;;;;11.50;8.52;;;;;;;17.37;87.51;101604.75;5053115;28;20039;-47
2021/07/10 07:25:36;;;;;;;13.40;7.30;;;;;;;17.19;87.95;101621.53;5051443;28;20052;-48
2021/07/10 07:28:02;;;;;;;11.30;8.60;;;;;;;16.93;88.98;101612.59;5051684;28;20474;-47
2021/07/10 07:30:28;;;;;;;13.52;7.85;;;;;;;17.14;88.36;101627.78;5053848;28;20046;-47
2021/07/10 07:32:54;;;;;;;13.35;8.07;;;;;;;17.19;87.91;101621.53;5046204;28;21641;-47
2021/07/10 07:35:20;;;;;;;10.13;7.32;;;;;;;17.13;88.00;101634.28;5056851;28;20379;-47
2021/07/10 07:37:46;;;;;;;10.30;6.80;;;;;;;16.98;88.55;101628.03;5048478;28;20086;-47
2021/07/10 07:40:14;;;;;;;9.40;6.72;;;;;;;17.13;87.92;101628.88;5056240;28;20437;-47
2021/07/10 07:42:40;;;;;;;10.40;7.05;;;;;;;17.10;88.44;101632.13;5051239;28;20037;-49
2021/07/10 07:45:07;;;;;;;11.70;7.45;;;;;;;17.35;87.03;101635.91;5052294;28;20043;-50
2021/07/10 07:47:33;;;;;;;10.48;6.78;;;;;;;17.54;86.43;101642.38;5053900;28;20031;-47
2021/07/10 07:49:59;;;;;;;10.32;7.25;;;;;;;17.51;86.31;101645.66;5053750;28;20021;-47
2021/07/10 07:52:25;;;;;;;10.35;7.53;;;;;;;17.42;87.29;101639.16;5048619;28;20368;-47
2021/07/10 07:54:50;;;;;;;9.40;7.30;;;;;;;17.48;86.20;101638.88;5051074;28;20037;-47
2021/07/10 07:57:16;;;;;;;8.63;6.68;;;;;;;17.67;85.64;101643.72;5055236;28;20029;-48
2021/07/10 07:59:42;;;;;;;11.05;7.88;;;;;;;17.37;86.44;101648.09;5053279;28;20236;-47
2021/07/10 08:02:08;;;;;;;9.75;7.05;;;;;;;17.57;85.59;101649.16;5053802;28;20111;-47
2021/07/10 08:04:35;;;;;;;10.30;7.68;;;;;;;17.66;85.27;101642.09;5056994;28;20374;-47
2021/07/10 08:07:00;;;;;;;10.73;8.07;;;;;;;17.41;85.94;101659.19;5057543;28;20021;-47
2021/07/10 08:09:26;;;;;;;10.60;7.53;;;;;;;17.63;85.37;101654.31;5056925;28;20409;-49
2021/07/10 08:11:52;;;;;;;9.80;7.68;;;;;;;17.63;84.90;101661.63;5056109;28;20028;-47
2021/07/10 08:14:17;;;;;;;9.93;7.60;;;;;;;17.64;84.34;101663.25;5052718;28;20394;-47
2021/07/10 08:16:43;;;;;;;9.32;7.10;;;;;;;17.67;83.58;101665.41;5040244;28;20032;-47
2021/07/10 08:19:08;;;;;;;12.65;7.22;;;;;;;17.42;84.50;101677.09;5049797;28;20036;-49
2021/07/10 08:21:34;;;;;;;8.88;7.22;;;;;;;17.63;83.82;101667.88;5053725;28;20055;-47
2021/07/10 08:24:01;;;;;;;12.93;7.70;;;;;;;17.72;83.38;101666.25;5052940;28;20107;-47
2021/07/10 08:26:28;;;;;;;11.85;8.15;;;;;;;17.57;83.13;101671.63;5049199;28;20036;-47
2021/07/10 08:28:54;;;;;;;13.45;7.50;;;;;;;17.67;83.20;101674.34;5053768;28;21141;-48
2021/07/10 08:31:20;;;;;;;13.52;8.23;;;;;;;17.62;83.38;101684.41;5052592;28;20067;-47
2021/07/10 08:33:46;;;;;;;12.25;8.00;;;;;;;17.72;83.29;101679.78;5054070;28;20082;-48
2021/07/10 08:36:11;;;;;;;11.23;7.68;;;;;;;17.65;83.56;101684.66;5050593;28;20114;-48
2021/07/10 08:38:37;;;;;;;11.23;7.50;;;;;;;17.83;83.72;101682.50;5046974;28;20473;-48
2021/07/10 08:41:10;;;;;;;12.90;7.78;;;;;;;18.19;81.69;101691.38;5047915;28;20024;-48
2021/07/10 08:43:39;;;;;;;13.35;7.55;;;;;;;18.33;81.50;101690.50;5046743;28;20025;-47
2021/07/10 08:46:07;;;;;;;11.65;7.63;;;;;;;18.25;81.06;101690.25;5050786;28;20136;-48
2021/07/10 08:48:34;;;;;;;11.77;7.28;;;;;;;18.29;80.74;101691.31;5050008;28;20386;-47
2021/07/10 08:51:05;;;;;;;12.82;7.65;;;;;;;18.59;80.17;101691.19;5049889;28;20047;-49
2021/07/10 08:53:30;;;;;;;12.00;7.50;;;;;;;18.51;80.15;101690.97;5056998;28;20098;-47
2021/07/10 08:55:57;;;;;;;10.60;7.47;;;;;;;18.48;79.60;101688.78;5052473;28;20775;-48
2021/07/10 08:58:22;;;;;;;11.43;7.53;;;;;;;18.52;79.90;101687.19;5044819;28;20028;-48
2021/07/10 09:00:49;;;;;;;13.05;8.20;;;;;;;18.50;80.20;101690.16;5047550;28;20471;-48
2021/07/10 09:03:15;;;;;;;13.32;8.40;;;;;;;18.14;81.11;101686.78;5044176;28;20043;-47
2021/07/10 09:05:41;;;;;;;13.23;7.90;;;;;;;18.45;79.79;101690.16;5046812;28;20479;-48
2021/07/10 09:08:19;;;;;;;16.05;9.00;;;;;;;18.47;80.19;101698.84;5047044;28;20036;-48
2021/07/10 09:10:56;;;;;;;14.02;8.80;;;;;;;18.71;79.13;101688.19;5047951;28;20029;-47
2021/07/10 09:13:30;;;;;;;12.65;7.53;;;;;;;18.64;78.52;101688.47;5046676;28;20607;-48
2021/07/10 09:16:14;;;;;;;10.43;7.75;;;;;;;18.78;78.18;101691.41;5046686;28;20040;-47
2021/07/10 09:18:39;;;;;;;11.18;8.30;;;;;;;18.59;79.46;101701.25;5048028;28;20040;-48
2021/07/10 09:21:05;;;;;;;12.98;8.15;;;;;;;18.55;79.51;101694.75;5048857;28;20032;-47
2021/07/10 09:23:40;;;;;;;11.48;8.25;;;;;;;18.32;78.88;101699.72;5052573;28;20025;-50
2021/07/10 09:26:22;;;;;;;12.85;7.30;;;;;;;18.32;79.78;101702.44;5054311;28;20036;-48
2021/07/10 09:29:02;;;;;;;11.23;7.65;;;;;;;18.34;79.85;101694.84;5053414;28;20029;-50
2021/07/10 09:31:57;;;;;;;12.55;8.63;;;;;;;18.23;81.10;101701.38;5049688;28;20031;-48
2021/07/10 09:34:39;;;;;;;11.70;7.83;;;;;;;18.75;78.97;101708.25;5017862;28;20396;-47
2021/07/10 09:37:06;;;;;;;15.85;8.57;;;;;;;18.69;79.31;101712.09;5045761;28;20278;-48
2021/07/10 09:39:35;;;;;;;15.27;8.55;;;;;;;18.67;79.34;101712.38;5048952;28;20023;-49
2021/07/10 09:42:02;;;;;;;15.70;8.27;;;;;;;18.71;78.37;101709.91;5047008;28;20044;-48
2021/07/10 09:44:47;;;;;;;16.60;9.57;;;;;;;18.70;78.55;101714.53;5049725;28;20025;-48
2021/07/10 09:47:14;;;;;;;;;;;;;;;18.71;78.26;101716.16;5047624;28;20069;-47
2021/07/10 09:49:42;;;;;;;16.20;8.98;;;;;;;18.84;77.85;101725.56;5047893;28;20042;-47
2021/07/10 09:52:09;;;;;;;14.90;8.65;;;;;;;18.84;78.03;101731.00;5047302;28;20438;-48
2021/07/10 09:54:39;;;;;;;15.05;9.23;;;;;;;18.97;76.81;101729.59;5047876;28;20032;-47
2021/07/10 09:57:17;;;;;;;13.75;9.38;;;;;;;18.99;77.13;101730.13;5035148;28;21753;-48
2021/07/10 09:59:52;;;;;;;12.75;8.43;;;;;;;18.80;77.62;101729.13;5051570;28;20249;-49
2021/07/10 10:02:26;;;;;;;16.40;8.63;;;;;;;19.12;76.75;101734.94;5050053;28;20043;-47
2021/07/10 10:05:00;;;;;;;14.50;9.50;;;;;;;19.54;74.80;101728.13;5051175;28;20032;-48
2021/07/10 10:07:26;;;;;;;11.52;8.35;;;;;;;19.64;74.17;101732.69;5048159;28;20028;-48
2021/07/10 10:09:57;;;;;;;14.68;9.02;;;;;;;19.26;75.70;101729.69;5049319;28;20029;-48
2021/07/10 10:12:23;;;;;;;14.48;9.32;;;;;;;19.57;74.58;101730.31;5047442;28;20555;-48
2021/07/10 10:14:57;;;;;;;17.48;8.73;;;;;;;19.55;73.80;101725.13;5045562;28;20131;-47
2021/07/10 10:17:24;;;;;;;14.60;8.77;;;;;;;19.52;73.83;101736.53;5047420;28;20024;-48
2021/07/10 10:19:50;;;;;;;15.27;9.70;;;;;;;19.17;74.95;101743.03;5053033;28;20066;-48
2021/07/10 10:22:18;;;;;;;15.38;8.65;;;;;;;19.50;74.26;101751.50;5050628;28;20032;-48
2021/07/10 10:24:46;;;;;;;16.17;9.40;;;;;;;19.56;74.34;101753.13;5050591;28;20405;-48
2021/07/10 10:27:14;;;;;;;15.32;9.48;;;;;;;19.54;73.98;101753.41;5051095;28;20028;-48
2021/07/10 10:29:40;;;;;;;15.30;9.40;;;;;;;19.43;74.03;101746.41;5050325;28;20155;-47
2021/07/10 10:32:08;;;;;;;15.75;9.88;;;;;;;18.95;76.16;101765.16;5052927;28;20029;-47
2021/07/10 10:34:35;;;;;;;18.75;9.73;;;;;;;19.13;75.05;101765.63;5053759;28;20036;-51
2021/07/10 10:37:01;;;;;;;17.05;10.52;;;;;;;18.63;76.71;101767.47;5053880;28;20051;-49
2021/07/10 10:39:29;;;;;;;14.68;9.60;;;;;;;18.67;76.83;101773.97;5055531;28;20029;-48
2021/07/10 10:42:05;;;;;;;13.23;9.48;;;;;;;18.84;75.56;101779.88;5053019;28;20037;-48
2021/07/10 10:44:42;;;;;;;17.20;10.27;;;;;;;18.59;76.67;101777.25;5054165;28;20434;-47
2021/07/10 10:47:10;;;;;;;12.80;9.27;;;;;;;18.84;75.47;101771.72;5051092;28;20498;-48
2021/07/10 10:49:42;;;;;;;15.30;9.57;;;;;;;18.97;75.22;101783.91;5053806;28;20031;-49
2021/07/10 10:52:23;;;;;;;13.70;9.13;;;;;;;18.91;75.75;101779.59;5054242;28;20025;-48
2021/07/10 10:54:51;;;;;;;15.23;9.43;;;;;;;19.16;74.74;101787.59;5054050;28;20471;-47
2021/07/10 10:57:18;;;;;;;15.40;9.82;;;;;;;18.74;75.95;101784.56;5052411;28;20029;-47
2021/07/10 10:59:45;;;;;;;11.48;8.88;;;;;;;18.98;75.69;101791.75;5053038;28;20024;-48
2021/07/10 11:02:25;;;;;;;12.00;9.15;;;;;;;18.70;75.87;101785.13;5054362;28;20264;-48
2021/07/10 11:04:55;;;;;;;14.27;9.23;;;;;;;18.27;76.52;101791.16;5052259;28;20024;-48
2021/07/10 11:07:31;;;;;;;11.93;8.52;;;;;;;18.60;76.49;101789.72;5054440;28;20053;-48
2021/07/10 11:10:02;;;;;;;13.57;8.90;;;;;;;18.57;76.68;101779.41;5053321;28;20033;-48
2021/07/10 11:12:49;;;;;;;19.13;9.13;;;;;;;18.71;76.93;101785.94;5053755;28;20020;-49
2021/07/10 11:15:32;;;;;;;12.75;8.13;;;;;;;18.67;75.74;101792.97;5052675;28;20063;-48
2021/07/10 11:18:00;;;;;;;9.60;7.72;;;;;;;18.86;75.35;101798.63;5051432;28;20021;-50
2021/07/10 11:20:46;;;;;;;11.95;8.20;;;;;;;19.02;74.13;101790.09;5053279;28;20025;-49
2021/07/10 11:23:26;;;;;;;15.07;9.25;;;;;;;19.26;74.52;101794.91;5052062;28;20029;-48